Ana Sayfa
METAR-TAF:

METAR-TAF

Havaalanları :

Ranger Station

Stanley, Idaho, Amerika Birleşik Devletleri

Enlem: 44-12-31N, Boylam: 114-56-04W, yükseklik: 1980 m

Güncel hava durumu gözlemi

Rapor saat 12:48 UTC de 14 dakika önce yapıldı.
Sakin rüzgar
Sıcaklık 9°C
Nem 61%
Basınç 1018 hPa

METAR: KSNT 271248Z AUTO 00000KT 09/02 A3006 RMK AO1 SLP088 T00940022

Saat: 07:02 (13:02 UTC)


TAF: eksik

4.000'den fazla havaalanı için hava durumu gözlemleri ve tahminleri (METAR ve TAF raporları).

Kullanılabilir istasyonlar harita üzerinde sarı ve kırmızı noktalarla gösterilir.

İstasyonun adını görmek için fareyi noktanın üzerinde gezdirin.

Sonrasında hava gözlem ve tahminlerini görmek için tıklayın.

Haritayı değiştirmek için: yaklaştırmak için siyah artı işaretli yeşil düğmeye ve uzaklaştırmak için de eksi işaretli düğmeye hızla tıklayın; bitişik haritalar için yeşil okları kullanın.


METAR-TAF: